Time;durP1;ratioP1;P1;durP2;ratioP2;P2;SDS_P1;SDS_P2;PMS_P1;PMS_P2;Temp;Humidity;BMP_temperature;BMP_pressure;BME280_temperature;BME280_humidity;BME280_pressure;Samples;Min_cycle;Max_cycle;Signal;HPM_P1;HPM_P2
2023/09/01 00:00:15;;;;;;;3.20;2.00;;;;;;;11.98;100.00;101221.47;5049172;28;20509;-75
2023/09/01 00:02:52;;;;;;;3.75;1.70;;;;;;;11.97;100.00;101209.16;5038537;28;20049;-74
2023/09/01 00:05:20;;;;;;;7.43;2.35;;;;;;;11.96;100.00;101211.78;5065125;28;20040;-76
2023/09/01 00:07:47;;;;;;;4.82;2.00;;;;;;;11.94;100.00;101217.06;5026648;28;20041;-76
2023/09/01 00:10:14;;;;;;;4.05;2.20;;;;;;;11.92;100.00;101217.94;5066090;28;20055;-75
2023/09/01 00:12:42;;;;;;;4.20;2.20;;;;;;;11.88;100.00;101217.91;5049351;28;20055;-75
2023/09/01 00:15:09;;;;;;;3.85;2.45;;;;;;;11.86;100.00;101219.66;5045740;28;20055;-75
2023/09/01 00:17:37;;;;;;;3.53;2.30;;;;;;;11.82;100.00;101224.94;5038248;28;20055;-75
2023/09/01 00:20:05;;;;;;;4.22;2.30;;;;;;;11.81;100.00;101231.06;5056002;28;20382;-76
2023/09/01 00:22:32;;;;;;;6.35;2.35;;;;;;;11.80;100.00;101218.75;4994814;28;20051;-75
2023/09/01 00:25:00;;;;;;;3.58;1.92;;;;;;;11.80;100.00;101224.03;5046681;28;20056;-75
2023/09/01 00:27:27;;;;;;;4.43;2.25;;;;;;;11.79;100.00;101223.13;5050245;28;20486;-75
2023/09/01 00:29:55;;;;;;;4.43;2.15;;;;;;;11.79;100.00;101224.91;5037369;28;20517;-75
2023/09/01 00:32:22;;;;;;;3.53;2.20;;;;;;;11.77;100.00;101216.97;5060989;28;20052;-75
2023/09/01 00:34:57;;;;;;;3.97;1.92;;;;;;;11.77;100.00;101213.47;5034927;28;20049;-75
2023/09/01 00:37:25;;;;;;;3.15;2.53;;;;;;;11.75;100.00;101217.84;5045944;28;20060;-75
2023/09/01 00:39:52;;;;;;;2.20;2.00;;;;;;;11.73;100.00;101215.19;5009245;28;20067;-75
2023/09/01 00:42:19;;;;;;;2.67;2.10;;;;;;;11.71;100.00;101217.81;5054199;28;20060;-75
2023/09/01 00:44:48;;;;;;;3.92;2.85;;;;;;;11.69;100.00;101211.66;5047798;28;20051;-75
2023/09/01 00:47:16;;;;;;;2.25;2.15;;;;;;;11.67;100.00;101226.63;5060161;28;20041;-75
2023/09/01 00:49:44;;;;;;;4.22;2.60;;;;;;;11.65;100.00;101216.94;5047740;28;20053;-75
2023/09/01 00:52:12;;;;;;;4.22;2.03;;;;;;;11.64;100.00;101218.66;5063385;28;20393;-76
2023/09/01 00:54:39;;;;;;;3.63;2.10;;;;;;;11.62;100.00;101216.91;4996414;28;20040;-76
2023/09/01 00:57:07;;;;;;;3.88;2.55;;;;;;;11.59;100.00;101212.50;5047243;28;20056;-75
2023/09/01 00:59:36;;;;;;;4.13;2.28;;;;;;;11.58;100.00;101213.38;5064575;28;20068;-75
2023/09/01 01:02:04;;;;;;;3.45;2.55;;;;;;;11.57;100.00;101214.25;5053905;28;20048;-75
2023/09/01 01:04:33;;;;;;;3.85;2.75;;;;;;;11.56;100.00;101219.53;5054216;28;20048;-75
2023/09/01 01:07:30;;;;;;;4.68;2.63;;;;;;;11.55;100.00;101217.75;5029803;28;20693;-76
2023/09/01 01:10:03;;;;;;;3.17;2.10;;;;;;;11.54;100.00;101214.22;5018422;28;20041;-75
2023/09/01 01:12:49;;;;;;;6.45;2.83;;;;;;;11.51;100.00;101215.13;5059860;28;20044;-76
2023/09/01 01:15:19;;;;;;;4.85;2.78;;;;;;;11.50;100.00;101212.47;5060326;28;20560;-75
2023/09/01 01:17:47;;;;;;;5.20;3.03;;;;;;;11.49;100.00;101213.31;5040782;28;20049;-77
2023/09/01 01:20:28;;;;;;;2.55;2.33;;;;;;;11.48;100.00;101212.44;5043495;28;20337;-75
2023/09/01 01:23:16;;;;;;;4.68;3.20;;;;;;;11.47;100.00;101212.44;5058214;28;20063;-76
2023/09/01 01:25:52;;;;;;;5.97;2.50;;;;;;;11.45;100.00;101207.13;5028304;28;20056;-75
2023/09/01 01:28:20;;;;;;;4.00;2.40;;;;;;;11.42;100.00;101215.06;5031774;28;20416;-75
2023/09/01 01:30:49;;;;;;;4.30;2.50;;;;;;;11.40;100.00;101221.19;5058621;28;20044;-76
2023/09/01 01:33:16;;;;;;;4.30;2.60;;;;;;;11.40;100.00;101215.91;5058752;28;20053;-76
2023/09/01 01:36:07;;;;;;;5.28;2.60;;;;;;;11.39;100.00;101220.31;5047982;28;20041;-76
2023/09/01 01:38:39;;;;;;;6.70;3.20;;;;;;;11.38;100.00;101217.66;5068847;28;20052;-75
2023/09/01 01:41:18;;;;;;;7.13;2.53;;;;;;;11.38;100.00;101209.72;5032381;28;20438;-74
2023/09/01 01:43:49;;;;;;;7.55;2.97;;;;;;;11.39;100.00;101208.88;5050688;28;20055;-75
2023/09/01 01:46:17;;;;;;;3.22;2.85;;;;;;;11.39;100.00;101211.50;5067955;28;20405;-75
2023/09/01 01:48:44;;;;;;;6.78;3.20;;;;;;;11.39;100.00;101219.44;5043746;28;20049;-75
2023/09/01 01:51:12;;;;;;;6.47;3.38;;;;;;;11.38;100.00;101215.91;5033619;28;20044;-75
2023/09/01 01:53:39;;;;;;;4.63;2.95;;;;;;;11.35;100.00;101217.66;5047374;28;20482;-75
2023/09/01 01:56:06;;;;;;;4.57;3.28;;;;;;;11.32;100.00;101224.69;5018046;28;20052;-75
2023/09/01 01:58:34;;;;;;;4.95;3.35;;;;;;;11.32;100.00;101219.41;5051205;28;20081;-75
2023/09/01 02:01:06;;;;;;;4.90;2.80;;;;;;;11.29;100.00;101219.38;5048455;28;20058;-75
2023/09/01 02:03:34;;;;;;;5.10;3.08;;;;;;;11.27;100.00;101222.88;5048689;28;20037;-75
2023/09/01 02:06:02;;;;;;;8.55;3.45;;;;;;;11.27;100.00;101217.59;5047592;28;20048;-75
2023/09/01 02:08:30;;;;;;;2.67;2.45;;;;;;;11.25;100.00;101216.72;5026547;28;20063;-75
2023/09/01 02:10:57;;;;;;;6.15;3.55;;;;;;;11.23;100.00;101216.69;4989658;28;20485;-75
2023/09/01 02:13:25;;;;;;;5.00;3.10;;;;;;;11.22;100.00;101217.56;5049313;28;20417;-75
2023/09/01 02:15:53;;;;;;;9.85;2.67;;;;;;;11.22;100.00;101221.97;5068453;28;20520;-76
2023/09/01 02:18:21;;;;;;;5.53;3.10;;;;;;;11.19;100.00;101227.22;5063558;28;20044;-76
2023/09/01 02:20:48;;;;;;;3.05;2.72;;;;;;;11.16;100.00;101214.03;5066110;28;20751;-75
2023/09/01 02:23:17;;;;;;;7.78;3.17;;;;;;;11.15;100.00;101214.88;5051557;28;20049;-75
2023/09/01 02:25:44;;;;;;;4.90;2.75;;;;;;;11.13;100.00;101209.59;5042795;28;20060;-76
2023/09/01 02:28:12;;;;;;;4.82;2.85;;;;;;;11.11;100.00;101208.69;5027335;28;20037;-75
2023/09/01 02:30:39;;;;;;;3.83;2.70;;;;;;;11.09;100.00;101205.16;5067770;28;20024;-77
2023/09/01 02:33:07;;;;;;;2.92;2.65;;;;;;;11.04;100.00;101204.25;5070076;28;20056;-75
2023/09/01 02:35:41;;;;;;;3.42;2.70;;;;;;;11.03;100.00;101211.28;5066786;28;20036;-75
2023/09/01 02:38:10;;;;;;;5.22;2.80;;;;;;;11.02;100.00;101219.19;5038504;28;20048;-75
2023/09/01 02:40:39;;;;;;;3.67;3.00;;;;;;;11.00;100.00;101210.38;5042235;28;20044;-75
2023/09/01 02:43:07;;;;;;;5.82;3.38;;;;;;;11.00;100.00;101216.56;5013328;28;20044;-75
2023/09/01 02:45:34;;;;;;;4.75;2.50;;;;;;;10.99;100.00;101214.78;5044735;28;20045;-75
2023/09/01 02:48:01;;;;;;;6.70;2.85;;;;;;;10.98;100.00;101217.41;5046697;28;20044;-75
2023/09/01 02:50:29;;;;;;;6.10;2.95;;;;;;;10.96;100.00;101217.38;5061669;28;20040;-75
2023/09/01 02:52:56;;;;;;;3.25;2.55;;;;;;;10.95;100.00;101217.38;5044704;28;20059;-75
2023/09/01 02:55:24;;;;;;;3.35;2.58;;;;;;;10.95;100.00;101222.66;5062989;28;20051;-75
2023/09/01 02:57:51;;;;;;;8.18;2.75;;;;;;;10.93;100.00;101217.38;5013784;28;20052;-75
2023/09/01 03:00:19;;;;;;;6.07;2.90;;;;;;;10.91;100.00;101222.63;5022311;28;20045;-75
2023/09/01 03:02:50;;;;;;;3.10;2.55;;;;;;;10.92;100.00;101223.50;5045651;28;20065;-75
2023/09/01 03:05:18;;;;;;;8.13;2.78;;;;;;;10.90;100.00;101215.56;5060505;28;20044;-75
2023/09/01 03:07:45;;;;;;;3.88;2.92;;;;;;;10.91;100.00;101216.47;5060796;28;20048;-75
2023/09/01 03:10:13;;;;;;;2.78;2.58;;;;;;;10.90;100.00;101215.56;5040861;28;20487;-75
2023/09/01 03:12:40;;;;;;;4.63;3.10;;;;;;;10.90;100.00;101222.59;5040740;28;20056;-75
2023/09/01 03:15:09;;;;;;;3.63;2.47;;;;;;;10.88;100.00;101225.22;5006270;28;20041;-75
2023/09/01 03:17:37;;;;;;;6.13;3.15;;;;;;;10.87;100.00;101223.47;5046231;28;20045;-76
2023/09/01 03:20:08;;;;;;;7.25;4.35;;;;;;;10.86;100.00;101223.47;5048873;28;20051;-75
2023/09/01 03:22:37;;;;;;;6.10;3.60;;;;;;;10.85;100.00;101222.59;5046838;28;20411;-76
2023/09/01 03:25:10;;;;;;;4.57;2.92;;;;;;;10.84;100.00;101220.81;5024467;28;20056;-76
2023/09/01 03:27:39;;;;;;;4.32;3.00;;;;;;;10.84;100.00;101217.28;5014356;28;20056;-75
2023/09/01 03:30:10;;;;;;;5.83;2.90;;;;;;;10.82;100.00;101230.47;4988293;28;20041;-76
2023/09/01 03:32:39;;;;;;;3.83;2.97;;;;;;;10.81;100.00;101225.16;5040689;28;20076;-76
2023/09/01 03:35:07;;;;;;;3.30;2.90;;;;;;;10.80;100.00;101226.94;5055633;28;20052;-75
2023/09/01 03:37:35;;;;;;;3.95;2.83;;;;;;;10.78;100.00;101226.03;5027922;28;20430;-75
2023/09/01 03:40:10;;;;;;;4.88;3.45;;;;;;;10.75;100.00;101227.75;5040301;28;20084;-74
2023/09/01 03:42:39;;;;;;;7.13;3.63;;;;;;;10.73;100.00;101231.25;5060421;28;20410;-75
2023/09/01 03:45:06;;;;;;;5.32;2.75;;;;;;;10.72;100.00;101224.22;4999266;28;20049;-74
2023/09/01 03:47:34;;;;;;;2.50;2.30;;;;;;;10.71;100.00;101227.72;5037421;28;20388;-75
2023/09/01 03:50:02;;;;;;;2.92;2.63;;;;;;;10.73;100.00;101222.47;5061105;28;20405;-75
2023/09/01 03:52:29;;;;;;;3.88;2.80;;;;;;;10.72;100.00;101221.59;5047461;28;20052;-76
2023/09/01 03:54:56;;;;;;;4.75;3.08;;;;;;;10.72;100.00;101212.81;5046804;28;20053;-75
2023/09/01 03:57:24;;;;;;;3.60;3.05;;;;;;;10.72;100.00;101211.06;5031609;28;20052;-75
2023/09/01 03:59:51;;;;;;;2.55;2.35;;;;;;;10.72;100.00;101220.72;5062997;28;20041;-75
2023/09/01 04:02:18;;;;;;;3.88;3.15;;;;;;;10.70;100.00;101220.69;4988608;28;20044;-75
2023/09/01 04:04:46;;;;;;;3.65;2.83;;;;;;;10.68;100.00;101219.81;5061147;28;20521;-75
2023/09/01 04:07:13;;;;;;;4.88;2.63;;;;;;;10.68;100.00;101213.63;5045818;28;20045;-75
2023/09/01 04:09:40;;;;;;;6.20;2.70;;;;;;;10.66;100.00;101228.56;5056090;28;20045;-75
2023/09/01 04:12:08;;;;;;;3.92;3.05;;;;;;;10.65;100.00;101216.25;5033378;28;20063;-75
2023/09/01 04:14:35;;;;;;;3.83;3.42;;;;;;;10.63;100.00;101215.38;5029014;28;20049;-75
2023/09/01 04:17:04;;;;;;;7.82;5.13;;;;;;;10.60;100.00;101221.47;5017796;28;20493;-74
2023/09/01 04:19:31;;;;;;;5.18;4.05;;;;;;;10.58;100.00;101222.34;5044473;28;20044;-75
2023/09/01 04:21:59;;;;;;;4.68;3.40;;;;;;;10.57;100.00;101225.84;5031384;28;20044;-75
2023/09/01 04:24:27;;;;;;;5.90;2.63;;;;;;;10.54;100.00;101222.31;5034587;28;20851;-75
2023/09/01 04:26:54;;;;;;;2.90;2.70;;;;;;;10.54;100.00;101231.97;5024006;28;20056;-75
2023/09/01 04:29:21;;;;;;;4.55;2.75;;;;;;;10.54;100.00;101224.94;5040910;28;20052;-74
2023/09/01 04:31:49;;;;;;;3.33;2.78;;;;;;;10.54;100.00;101227.56;5036412;28;20514;-74
2023/09/01 04:34:18;;;;;;;4.13;2.83;;;;;;;10.55;100.00;101231.13;5000937;28;20056;-74
2023/09/01 04:36:50;;;;;;;4.13;2.72;;;;;;;10.57;100.00;101231.09;5048171;28;20520;-75
2023/09/01 04:39:17;;;;;;;4.22;2.80;;;;;;;10.58;100.00;101240.78;5049348;28;20060;-75
2023/09/01 04:41:44;;;;;;;5.80;2.50;;;;;;;10.58;100.00;101236.38;5032538;28;20044;-75
2023/09/01 04:44:13;;;;;;;5.22;3.03;;;;;;;10.59;100.00;101239.94;5054656;28;20421;-75
2023/09/01 04:46:42;;;;;;;6.65;2.95;;;;;;;10.58;100.00;101239.03;5048776;28;20048;-76
2023/09/01 04:49:10;;;;;;;4.82;3.25;;;;;;;10.57;100.00;101244.28;4999994;28;20419;-75
2023/09/01 04:51:39;;;;;;;4.20;2.60;;;;;;;10.57;100.00;101249.53;5044011;28;20410;-74
2023/09/01 04:54:07;;;;;;;4.43;2.65;;;;;;;10.56;100.00;101247.81;5037872;28;20056;-76
2023/09/01 04:56:34;;;;;;;4.80;3.15;;;;;;;10.54;100.00;101247.78;5042395;28;20059;-75
2023/09/01 04:59:02;;;;;;;4.45;2.78;;;;;;;10.54;100.00;101239.88;5031169;28;20425;-75
2023/09/01 05:01:29;;;;;;;5.65;2.50;;;;;;;10.53;100.00;101244.28;5037870;28;20059;-75
2023/09/01 05:03:57;;;;;;;4.60;3.30;;;;;;;10.54;100.00;101247.78;5000171;28;20080;-75
2023/09/01 05:06:24;;;;;;;8.50;2.88;;;;;;;10.54;100.00;101253.91;5053297;28;20052;-75
2023/09/01 05:08:51;;;;;;;3.33;2.97;;;;;;;10.54;100.00;101256.56;5035987;28;20056;-75
2023/09/01 05:11:19;;;;;;;3.83;3.17;;;;;;;10.53;100.00;101262.72;5037987;28;20041;-75
2023/09/01 05:13:46;;;;;;;10.48;3.95;;;;;;;10.54;100.00;101263.59;5045484;28;20052;-75
2023/09/01 05:16:13;;;;;;;4.45;3.10;;;;;;;10.54;100.00;101258.31;5062980;28;20048;-75
2023/09/01 05:18:41;;;;;;;6.28;2.72;;;;;;;10.56;100.00;101250.44;5005527;28;20508;-75
2023/09/01 05:21:09;;;;;;;3.38;2.95;;;;;;;10.57;100.00;101254.81;5030777;28;20048;-75
2023/09/01 05:23:39;;;;;;;2.60;2.40;;;;;;;10.59;100.00;101259.25;5043638;28;20405;-75
2023/09/01 05:26:07;;;;;;;4.22;2.67;;;;;;;10.60;100.00;101262.75;5038427;28;20502;-75
2023/09/01 05:28:34;;;;;;;3.50;2.65;;;;;;;10.60;100.00;101266.28;5038298;28;20060;-75
2023/09/01 05:31:03;;;;;;;5.15;3.20;;;;;;;10.62;100.00;101282.97;5048171;28;20497;-75
2023/09/01 05:33:33;;;;;;;3.35;2.95;;;;;;;10.63;100.00;101271.59;5019506;28;20049;-76
2023/09/01 05:36:02;;;;;;;3.90;2.92;;;;;;;10.65;100.00;101276.88;5010603;28;20060;-75
2023/09/01 05:38:29;;;;;;;5.88;3.45;;;;;;;10.68;100.00;101266.34;5062440;28;20490;-75
2023/09/01 05:40:59;;;;;;;7.38;3.55;;;;;;;10.72;100.00;101282.22;5039988;28;20083;-75
2023/09/01 05:43:26;;;;;;;5.15;2.92;;;;;;;10.77;100.00;101276.97;5044056;28;20517;-75
2023/09/01 05:45:54;;;;;;;4.00;3.00;;;;;;;10.82;100.00;101284.94;5028654;28;20229;-75
2023/09/01 05:48:25;;;;;;;3.88;3.45;;;;;;;10.88;100.00;101291.13;5052873;28;20060;-75
2023/09/01 05:50:53;;;;;;;10.13;3.58;;;;;;;10.97;100.00;101281.56;5044091;28;20040;-75
2023/09/01 05:53:22;;;;;;;4.88;3.15;;;;;;;11.01;100.00;101278.06;5032539;28;20528;-75
2023/09/01 05:55:49;;;;;;;5.70;3.22;;;;;;;11.07;100.00;101280.75;5039509;28;20053;-75
2023/09/01 05:58:17;;;;;;;5.35;3.17;;;;;;;11.11;100.00;101283.44;5025421;28;20044;-76
2023/09/01 06:00:45;;;;;;;4.72;3.35;;;;;;;11.19;100.00;101290.50;5008208;28;20032;-75
2023/09/01 06:03:12;;;;;;;3.55;3.22;;;;;;;11.24;100.00;101284.41;5049719;28;20056;-76
2023/09/01 06:05:39;;;;;;;5.15;3.60;;;;;;;11.32;100.00;101282.72;5021091;28;20052;-76
2023/09/01 06:08:07;;;;;;;11.88;3.38;;;;;;;11.40;100.00;101285.41;5060113;28;20070;-76
2023/09/01 06:10:35;;;;;;;7.18;3.72;;;;;;;11.47;100.00;101292.50;5038390;28;20509;-75
2023/09/01 06:13:02;;;;;;;8.95;3.47;;;;;;;11.56;100.00;101291.66;5030462;28;20504;-75
2023/09/01 06:15:30;;;;;;;10.35;4.07;;;;;;;11.66;100.00;101297.88;5052890;28;20045;-75
2023/09/01 06:17:58;;;;;;;5.10;3.42;;;;;;;11.76;100.00;101296.16;5049089;28;20059;-76
2023/09/01 06:20:25;;;;;;;4.65;3.08;;;;;;;11.90;100.00;101299.81;5048625;28;20049;-76
2023/09/01 06:22:54;;;;;;;4.38;2.95;;;;;;;12.10;100.00;101294.63;5064366;28;20048;-75
2023/09/01 06:25:21;;;;;;;5.50;3.30;;;;;;;12.26;100.00;101300.84;5028289;28;20045;-75
2023/09/01 06:27:49;;;;;;;4.15;3.20;;;;;;;12.35;100.00;101300.88;5021266;28;20437;-75
2023/09/01 06:30:16;;;;;;;6.50;2.95;;;;;;;12.45;100.00;101312.34;5053327;28;20048;-75
2023/09/01 06:32:44;;;;;;;2.78;2.58;;;;;;;12.52;100.00;101307.97;5049364;28;20040;-75
2023/09/01 06:35:16;;;;;;;5.07;3.00;;;;;;;12.56;100.00;101312.38;5060120;28;20497;-76
2023/09/01 06:37:43;;;;;;;5.18;3.20;;;;;;;12.63;100.00;101312.41;5015795;28;20055;-75
2023/09/01 06:40:11;;;;;;;6.45;3.25;;;;;;;12.68;100.00;101315.94;5060187;28;20049;-75
2023/09/01 06:42:38;;;;;;;3.88;2.90;;;;;;;12.81;100.00;101305.38;5040616;28;20055;-75
2023/09/01 06:45:06;;;;;;;4.07;2.60;;;;;;;12.95;100.00;101308.03;5042209;28;20517;-75
2023/09/01 06:47:33;;;;;;;4.93;2.92;;;;;;;13.09;100.00;101308.06;5043734;28;20049;-75
2023/09/01 06:50:01;;;;;;;5.93;2.75;;;;;;;13.33;100.00;101305.44;5062539;28;20049;-75
2023/09/01 06:52:28;;;;;;;3.15;2.35;;;;;;;13.70;100.00;101304.47;5033126;28;20040;-75
2023/09/01 06:54:56;;;;;;;5.88;2.60;;;;;;;13.93;100.00;101302.66;5067610;28;20056;-75
2023/09/01 06:57:23;;;;;;;4.45;2.63;;;;;;;14.15;100.00;101307.88;5025963;28;20055;-77
2023/09/01 06:59:50;;;;;;;4.57;2.40;;;;;;;14.41;100.00;101300.66;5046045;28;20052;-75
2023/09/01 07:02:18;;;;;;;3.78;2.30;;;;;;;14.59;100.00;101296.16;5049938;28;20041;-75
2023/09/01 07:04:45;;;;;;;5.55;2.28;;;;;;;14.77;100.00;101298.72;5037699;28;20052;-76
2023/09/01 07:07:12;;;;;;;5.40;2.00;;;;;;;14.87;100.00;101301.28;5061684;28;20520;-76
2023/09/01 07:09:40;;;;;;;2.70;2.20;;;;;;;14.99;100.00;101303.88;5008248;28;20489;-75
2023/09/01 07:12:07;;;;;;;4.40;2.22;;;;;;;15.19;100.00;101288.63;5040215;28;20045;-75
2023/09/01 07:14:34;;;;;;;3.40;2.00;;;;;;;15.43;100.00;101289.31;5032306;28;24685;-75
2023/09/01 07:17:02;;;;;;;6.18;2.03;;;;;;;15.67;100.00;101300.56;5058053;28;20088;-75
2023/09/01 07:19:30;;;;;;;5.05;2.10;;;;;;;15.83;100.00;101302.19;5031081;28;20517;-77
2023/09/01 07:21:57;;;;;;;4.03;2.47;;;;;;;15.89;100.00;101304.78;5051627;28;20055;-75
2023/09/01 07:24:24;;;;;;;3.15;2.45;;;;;;;15.91;100.00;101299.47;5023607;28;20516;-76
2023/09/01 07:26:52;;;;;;;7.70;2.00;;;;;;;15.89;100.00;101299.47;5057072;28;20040;-77
2023/09/01 07:29:19;;;;;;;4.57;2.08;;;;;;;15.89;100.00;101309.22;5033002;28;20060;-75
2023/09/01 07:31:46;;;;;;;3.80;2.20;;;;;;;15.90;100.00;101301.25;5026695;28;20037;-76
2023/09/01 07:34:14;;;;;;;4.53;1.95;;;;;;;15.88;100.00;101308.34;5029595;28;20057;-75
2023/09/01 07:36:41;;;;;;;7.30;1.80;;;;;;;15.93;100.00;101313.59;5042078;28;20049;-75
2023/09/01 07:39:08;;;;;;;5.07;2.20;;;;;;;15.98;100.00;101317.97;4996413;28;20492;-76
2023/09/01 07:41:36;;;;;;;4.90;2.10;;;;;;;16.06;100.00;101315.22;5051883;28;20036;-76
2023/09/01 07:44:03;;;;;;;4.93;2.13;;;;;;;16.12;100.00;101320.50;5055692;28;20048;-75
2023/09/01 07:46:33;;;;;;;2.70;1.80;;;;;;;16.17;100.00;101318.63;5050256;28;20055;-74
2023/09/01 07:49:02;;;;;;;4.22;2.15;;;;;;;16.24;100.00;101321.19;5044042;28;20049;-76
2023/09/01 07:51:30;;;;;;;3.03;1.83;;;;;;;16.30;100.00;101324.69;5045136;28;20056;-75
2023/09/01 07:53:58;;;;;;;4.65;2.05;;;;;;;16.35;100.00;101319.28;5014620;28;20041;-76
2023/09/01 07:56:26;;;;;;;4.28;1.98;;;;;;;16.44;100.00;101318.28;5045532;28;20063;-75
2023/09/01 07:58:53;;;;;;;5.10;2.10;;;;;;;16.52;100.00;101322.63;5041830;28;20052;-75
2023/09/01 08:01:21;;;;;;;4.70;2.08;;;;;;;16.63;100.00;101314.47;5048011;28;20056;-75
2023/09/01 08:03:48;;;;;;;3.85;1.95;;;;;;;16.74;100.00;101323.16;5041183;28;20055;-75
2023/09/01 08:06:15;;;;;;;2.78;1.60;;;;;;;16.83;100.00;101326.66;5011829;28;20052;-76
2023/09/01 08:08:43;;;;;;;4.93;2.13;;;;;;;16.91;100.00;101330.06;5043714;28;20446;-75
2023/09/01 08:11:10;;;;;;;2.65;1.83;;;;;;;16.93;100.00;101328.25;5006888;28;20052;-75
2023/09/01 08:13:37;;;;;;;2.20;1.75;;;;;;;16.94;100.00;101335.34;5011869;28;20509;-75
2023/09/01 08:16:05;;;;;;;5.22;1.77;;;;;;;16.93;100.00;101325.59;5032908;28;20055;-75
2023/09/01 08:18:33;;;;;;;2.38;1.52;;;;;;;16.93;100.00;101325.59;5041423;28;20795;-75
2023/09/01 08:21:05;;;;;;;4.05;1.80;;;;;;;16.91;100.00;101330.94;5050729;28;20040;-75
2023/09/01 08:23:32;;;;;;;2.05;1.67;;;;;;;16.91;100.00;101328.28;5041769;28;20556;-76
2023/09/01 08:26:07;;;;;;;3.78;1.60;;;;;;;16.94;100.00;101335.34;4982460;28;20739;-75
2023/09/01 08:28:34;;;;;;;2.15;1.58;;;;;;;16.97;100.00;101329.09;5043817;28;20584;-75
2023/09/01 08:31:03;;;;;;;2.35;1.45;;;;;;;17.00;100.00;101329.06;5020858;28;20056;-75
2023/09/01 08:33:31;;;;;;;4.28;1.65;;;;;;;17.07;100.00;101328.03;5039075;28;20072;-75
2023/09/01 08:36:03;;;;;;;3.30;1.60;;;;;;;17.17;100.00;101332.31;5049447;28;20533;-75
2023/09/01 08:38:31;;;;;;;3.28;1.67;;;;;;;17.26;100.00;101317.97;5038627;28;20812;-75
2023/09/01 08:41:00;;;;;;;3.53;1.25;;;;;;;17.33;100.00;101327.59;5006680;28;20055;-76
2023/09/01 08:43:34;;;;;;;3.90;2.00;;;;;;;17.35;100.00;101328.44;5047014;28;20037;-76
2023/09/01 08:46:05;;;;;;;3.70;1.75;;;;;;;17.36;100.00;101327.56;5044632;28;20051;-76
2023/09/01 08:48:36;;;;;;;3.30;1.63;;;;;;;17.36;100.00;101318.69;5017928;28;20059;-75
2023/09/01 08:51:05;;;;;;;4.13;1.67;;;;;;;17.36;100.00;101324.88;5034265;28;20045;-76
2023/09/01 08:53:33;;;;;;;2.45;1.90;;;;;;;17.37;100.00;101331.09;5012859;28;20048;-76
2023/09/01 08:56:01;;;;;;;4.13;1.88;;;;;;;17.34;100.00;101324.91;5031843;28;20072;-76
2023/09/01 08:58:28;;;;;;;2.03;1.80;;;;;;;17.30;100.00;101333.00;5025406;28;20040;-76
2023/09/01 09:00:56;;;;;;;2.47;1.67;;;;;;;17.28;100.00;101330.34;5035617;28;20829;-76
2023/09/01 09:03:23;;;;;;;4.38;2.05;;;;;;;17.28;100.00;101345.47;5027643;28;20037;-76
2023/09/01 09:05:51;;;;;;;4.38;2.42;;;;;;;17.26;100.00;101341.94;5049851;28;20056;-76
2023/09/01 09:08:20;;;;;;;3.92;2.00;;;;;;;17.25;100.00;101338.38;5041367;28;20044;-76
2023/09/01 09:10:47;;;;;;;2.63;1.80;;;;;;;17.23;100.00;101342.84;5058493;28;20052;-76
2023/09/01 09:13:24;;;;;;;3.97;1.80;;;;;;;17.25;100.00;101348.16;5011236;28;20029;-75
2023/09/01 09:16:15;;;;;;;2.40;1.55;;;;;;;17.28;100.00;101335.69;5057496;28;20045;-76
2023/09/01 09:18:44;;;;;;;4.53;1.52;;;;;;;17.31;100.00;101345.38;5038679;28;20051;-75
2023/09/01 09:21:28;;;;;;;6.27;1.77;;;;;;;17.30;100.00;101333.00;5032385;28;20060;-75
2023/09/01 09:24:01;;;;;;;4.07;1.70;;;;;;;17.29;100.00;101331.22;5064626;28;20059;-76
2023/09/01 09:26:31;;;;;;;3.85;1.50;;;;;;;17.25;100.00;101335.72;5024511;28;20056;-76
2023/09/01 09:29:07;;;;;;;2.83;1.42;;;;;;;17.25;100.00;101345.50;5057657;28;20060;-75
2023/09/01 09:31:39;;;;;;;1.58;1.42;;;;;;;17.24;100.00;101344.63;5061750;28;20048;-76
2023/09/01 09:34:15;;;;;;;5.47;1.70;;;;;;;17.22;100.00;101349.09;5011845;28;20056;-75
2023/09/01 09:36:45;;;;;;;7.28;1.80;;;;;;;17.19;100.00;101345.63;5049080;28;20591;-75
2023/09/01 09:39:26;;;;;;;3.00;1.52;;;;;;;17.18;100.00;101349.16;5029579;28;20501;-76
2023/09/01 09:41:54;;;;;;;5.35;1.98;;;;;;;17.19;100.00;101345.63;5047729;28;20048;-75
2023/09/01 09:44:25;;;;;;;3.33;1.45;;;;;;;17.17;100.00;101350.97;5052752;28;20036;-75
2023/09/01 09:46:54;;;;;;;5.93;1.42;;;;;;;17.20;100.00;101345.59;5060688;28;20048;-76
2023/09/01 09:49:25;;;;;;;4.95;1.35;;;;;;;17.22;100.00;101348.19;5048146;28;20052;-75
2023/09/01 09:51:53;;;;;;;2.65;1.35;;;;;;;17.24;100.00;101354.38;5021800;28;20057;-76
2023/09/01 09:54:22;;;;;;;1.83;1.15;;;;;;;17.28;100.00;101353.44;5032887;28;20048;-75
2023/09/01 09:56:51;;;;;;;2.42;1.20;;;;;;;17.30;100.00;101356.97;5042884;28;20059;-75
2023/09/01 09:59:33;;;;;;;7.22;1.85;;;;;;;17.34;100.00;101345.34;5036668;28;20048;-75
2023/09/01 10:02:09;;;;;;;2.15;1.30;;;;;;;17.39;100.00;101345.25;5049595;28;20044;-76
2023/09/01 10:04:39;;;;;;;2.45;1.67;;;;;;;17.43;100.00;101347.88;5052655;28;20049;-75
2023/09/01 10:07:07;;;;;;;2.35;1.63;;;;;;;17.49;100.00;101350.41;5031856;28;20048;-75
2023/09/01 10:09:34;;;;;;;4.30;1.90;;;;;;;17.51;100.00;101348.59;5029722;28;20059;-75
2023/09/01 10:12:02;;;;;;;2.92;1.50;;;;;;;17.56;100.00;101345.88;5031582;28;20048;-75
2023/09/01 10:14:30;;;;;;;3.40;1.30;;;;;;;17.56;100.00;101337.88;5006028;28;20045;-75
2023/09/01 10:16:59;;;;;;;5.28;1.70;;;;;;;17.59;100.00;101351.13;5053133;28;20067;-75
2023/09/01 10:19:27;;;;;;;3.22;1.30;;;;;;;17.59;100.00;101356.44;5038867;28;20053;-77
2023/09/01 10:21:55;;;;;;;4.15;1.33;;;;;;;17.61;100.00;101351.97;5049456;28;20075;-76
2023/09/01 10:24:22;;;;;;;1.95;1.10;;;;;;;17.66;100.00;101359.91;5013154;28;20049;-77
2023/09/01 10:27:07;;;;;;;3.40;1.17;;;;;;;17.68;100.00;101356.28;5040107;28;20080;-76
2023/09/01 10:29:35;;;;;;;0.88;0.80;;;;;;;17.74;100.00;101363.28;5011591;28;20044;-76
2023/09/01 10:32:18;;;;;;;1.08;0.90;;;;;;;17.76;100.00;101358.81;5022633;28;20413;-77
2023/09/01 10:34:53;;;;;;;1.58;0.90;;;;;;;17.76;100.00;101363.28;5026229;28;20049;-77
2023/09/01 10:37:30;;;;;;;1.42;1.25;;;;;;;17.82;100.00;101366.69;5032452;28;20056;-76
2023/09/01 10:40:00;;;;;;;2.25;1.42;;;;;;;17.94;100.00;101373.63;5069426;28;20048;-76
2023/09/01 10:42:48;;;;;;;1.73;1.55;;;;;;;18.06;100.00;101369.84;5040007;28;20049;-77
2023/09/01 10:45:16;;;;;;;2.45;1.30;;;;;;;18.16;100.00;101367.88;5010922;28;20044;-77
2023/09/01 10:47:48;;;;;;;1.83;1.63;;;;;;;18.23;100.00;101370.38;5052554;28;20056;-78
2023/09/01 10:50:16;;;;;;;3.05;1.88;;;;;;;18.23;100.00;101367.72;5067525;28;20059;-78
2023/09/01 10:52:46;;;;;;;2.70;1.67;;;;;;;18.29;100.00;101369.38;5017684;28;20048;-77
2023/09/01 10:55:14;;;;;;;2.78;1.52;;;;;;;18.34;100.00;101369.28;5047161;28;20056;-78
2023/09/01 10:57:51;;;;;;;3.28;2.00;;;;;;;18.35;100.00;101371.91;5046145;28;20083;-77
2023/09/01 11:00:33;;;;;;;1.30;1.20;;;;;;;18.35;100.00;101371.03;4999652;28;20052;-78
2023/09/01 11:03:25;;;;;;;2.38;1.55;;;;;;;18.39;100.00;101372.72;5055530;28;20063;-76
2023/09/01 11:05:57;;;;;;;1.77;1.40;;;;;;;18.48;100.00;101376.06;5051857;28;20052;-76
2023/09/01 11:08:25;;;;;;;2.50;1.30;;;;;;;18.60;100.00;101376.72;5029800;28;20417;-76
2023/09/01 11:10:55;;;;;;;1.13;1.00;;;;;;;18.73;100.00;101378.22;5031955;28;20052;-77
2023/09/01 11:13:25;;;;;;;2.33;1.20;;;;;;;18.86;100.00;101382.38;5036235;28;20064;-75
2023/09/01 11:15:53;;;;;;;1.70;1.08;;;;;;;18.99;100.00;101377.66;5023549;28;20053;-77
2023/09/01 11:18:24;;;;;;;2.22;1.20;;;;;;;19.13;100.00;101380.00;5038874;28;20056;-77
2023/09/01 11:20:54;;;;;;;1.88;0.88;;;;;;;19.24;100.00;101377.97;5014895;28;20075;-77
2023/09/01 11:23:23;;;;;;;2.95;1.20;;;;;;;19.42;100.00;101368.59;5038741;28;20052;-77
2023/09/01 11:25:55;;;;;;;3.08;1.35;;;;;;;19.52;100.00;101371.91;5013170;28;20057;-76